sensor_id;sensor_type;location;lat;lon;timestamp;P1;durP1;ratioP1;P2;durP2;ratioP2
75937;SDS011;64615;32.062;34.834;2024-03-23T00:53:12;15.18;;;3.20;;
75937;SDS011;64615;32.062;34.834;2024-03-23T00:55:38;10.30;;;3.50;;
75937;SDS011;64615;32.062;34.834;2024-03-23T00:58:03;11.30;;;3.30;;
75937;SDS011;64615;32.062;34.834;2024-03-23T01:00:29;8.80;;;2.90;;
75937;SDS011;64615;32.062;34.834;2024-03-23T01:02:55;8.57;;;2.65;;
75937;SDS011;64615;32.062;34.834;2024-03-23T01:05:20;8.38;;;3.33;;
75937;SDS011;64615;32.062;34.834;2024-03-23T01:07:46;13.07;;;2.97;;
75937;SDS011;64615;32.062;34.834;2024-03-23T01:10:12;10.15;;;3.15;;
75937;SDS011;64615;32.062;34.834;2024-03-23T01:12:37;11.20;;;2.83;;
75937;SDS011;64615;32.062;34.834;2024-03-23T01:15:03;9.35;;;2.90;;
75937;SDS011;64615;32.062;34.834;2024-03-23T01:17:29;9.18;;;3.15;;
75937;SDS011;64615;32.062;34.834;2024-03-23T01:19:54;9.32;;;2.90;;
75937;SDS011;64615;32.062;34.834;2024-03-23T01:22:20;9.75;;;2.95;;
75937;SDS011;64615;32.062;34.834;2024-03-23T01:24:46;7.47;;;2.42;;
75937;SDS011;64615;32.062;34.834;2024-03-23T01:27:12;9.05;;;2.55;;
75937;SDS011;64615;32.062;34.834;2024-03-23T01:29:37;9.88;;;2.70;;
75937;SDS011;64615;32.062;34.834;2024-03-23T01:32:04;9.07;;;2.60;;
75937;SDS011;64615;32.062;34.834;2024-03-23T01:34:30;10.75;;;2.92;;
75937;SDS011;64615;32.062;34.834;2024-03-23T01:36:55;8.55;;;2.53;;
75937;SDS011;64615;32.062;34.834;2024-03-23T01:39:21;9.77;;;2.50;;
75937;SDS011;64615;32.062;34.834;2024-03-23T01:41:47;7.60;;;2.20;;
75937;SDS011;64615;32.062;34.834;2024-03-23T01:44:12;6.95;;;2.40;;
75937;SDS011;64615;32.062;34.834;2024-03-23T01:46:38;10.75;;;2.42;;
75937;SDS011;64615;32.062;34.834;2024-03-23T01:49:04;8.02;;;2.50;;
75937;SDS011;64615;32.062;34.834;2024-03-23T01:51:30;10.23;;;3.00;;
75937;SDS011;64615;32.062;34.834;2024-03-23T01:53:58;6.68;;;2.35;;
75937;SDS011;64615;32.062;34.834;2024-03-23T01:56:28;9.48;;;2.70;;
75937;SDS011;64615;32.062;34.834;2024-03-23T01:58:55;8.82;;;2.50;;
75937;SDS011;64615;32.062;34.834;2024-03-23T02:01:21;16.08;;;2.65;;
75937;SDS011;64615;32.062;34.834;2024-03-23T02:03:46;11.15;;;2.45;;
75937;SDS011;64615;32.062;34.834;2024-03-23T02:06:13;9.00;;;2.60;;
75937;SDS011;64615;32.062;34.834;2024-03-23T02:08:39;6.50;;;2.42;;
75937;SDS011;64615;32.062;34.834;2024-03-23T02:11:05;7.93;;;2.47;;
75937;SDS011;64615;32.062;34.834;2024-03-23T02:13:31;8.77;;;2.78;;
75937;SDS011;64615;32.062;34.834;2024-03-23T02:15:57;7.25;;;2.30;;
75937;SDS011;64615;32.062;34.834;2024-03-23T02:18:23;9.85;;;2.33;;
75937;SDS011;64615;32.062;34.834;2024-03-23T02:20:49;7.78;;;2.55;;
75937;SDS011;64615;32.062;34.834;2024-03-23T02:23:17;6.50;;;2.40;;
75937;SDS011;64615;32.062;34.834;2024-03-23T02:25:43;6.57;;;2.35;;
75937;SDS011;64615;32.062;34.834;2024-03-23T02:28:09;8.80;;;2.38;;
75937;SDS011;64615;32.062;34.834;2024-03-23T02:30:36;6.75;;;2.30;;
75937;SDS011;64615;32.062;34.834;2024-03-23T02:33:02;10.35;;;2.83;;
75937;SDS011;64615;32.062;34.834;2024-03-23T02:35:28;5.80;;;2.20;;
75937;SDS011;64615;32.062;34.834;2024-03-23T02:37:54;8.95;;;2.72;;
75937;SDS011;64615;32.062;34.834;2024-03-23T02:40:22;9.07;;;2.42;;
75937;SDS011;64615;32.062;34.834;2024-03-23T02:42:48;6.80;;;2.35;;
75937;SDS011;64615;32.062;34.834;2024-03-23T02:45:14;5.43;;;2.40;;
75937;SDS011;64615;32.062;34.834;2024-03-23T02:47:40;5.55;;;2.08;;
75937;SDS011;64615;32.062;34.834;2024-03-23T02:50:06;8.10;;;2.33;;
75937;SDS011;64615;32.062;34.834;2024-03-23T02:52:32;6.07;;;2.28;;
75937;SDS011;64615;32.062;34.834;2024-03-23T02:54:58;6.55;;;2.42;;
75937;SDS011;64615;32.062;34.834;2024-03-23T02:57:23;8.80;;;2.55;;
75937;SDS011;64615;32.062;34.834;2024-03-23T02:59:49;6.85;;;2.50;;
75937;SDS011;64615;32.062;34.834;2024-03-23T03:02:15;8.13;;;2.65;;
75937;SDS011;64615;32.062;34.834;2024-03-23T03:04:41;7.32;;;2.50;;
75937;SDS011;64615;32.062;34.834;2024-03-23T03:07:07;9.38;;;2.58;;
75937;SDS011;64615;32.062;34.834;2024-03-23T03:09:33;5.95;;;2.13;;
75937;SDS011;64615;32.062;34.834;2024-03-23T03:12:00;7.13;;;2.05;;
75937;SDS011;64615;32.062;34.834;2024-03-23T03:14:27;7.18;;;2.30;;
75937;SDS011;64615;32.062;34.834;2024-03-23T03:16:53;6.00;;;2.33;;
75937;SDS011;64615;32.062;34.834;2024-03-23T03:19:19;5.85;;;2.20;;
75937;SDS011;64615;32.062;34.834;2024-03-23T03:21:45;7.07;;;2.22;;
75937;SDS011;64615;32.062;34.834;2024-03-23T03:24:10;6.93;;;2.10;;
75937;SDS011;64615;32.062;34.834;2024-03-23T03:26:36;9.32;;;2.38;;
75937;SDS011;64615;32.062;34.834;2024-03-23T03:29:02;16.33;;;2.88;;
75937;SDS011;64615;32.062;34.834;2024-03-23T03:31:28;12.93;;;2.95;;
75937;SDS011;64615;32.062;34.834;2024-03-23T03:33:53;9.30;;;3.00;;
75937;SDS011;64615;32.062;34.834;2024-03-23T03:36:19;10.40;;;2.50;;
75937;SDS011;64615;32.062;34.834;2024-03-23T03:38:45;11.73;;;3.00;;
75937;SDS011;64615;32.062;34.834;2024-03-23T03:41:10;16.23;;;2.70;;
75937;SDS011;64615;32.062;34.834;2024-03-23T03:43:36;14.75;;;2.65;;
75937;SDS011;64615;32.062;34.834;2024-03-23T03:46:03;11.68;;;2.47;;
75937;SDS011;64615;32.062;34.834;2024-03-23T03:48:29;12.48;;;2.63;;
75937;SDS011;64615;32.062;34.834;2024-03-23T03:50:55;10.15;;;3.10;;
75937;SDS011;64615;32.062;34.834;2024-03-23T03:53:20;7.97;;;2.15;;
75937;SDS011;64615;32.062;34.834;2024-03-23T03:55:46;8.15;;;2.53;;
75937;SDS011;64615;32.062;34.834;2024-03-23T03:58:12;7.95;;;2.40;;
75937;SDS011;64615;32.062;34.834;2024-03-23T04:00:37;7.47;;;2.45;;
75937;SDS011;64615;32.062;34.834;2024-03-23T04:03:03;15.60;;;2.85;;
75937;SDS011;64615;32.062;34.834;2024-03-23T04:05:29;21.40;;;2.83;;
75937;SDS011;64615;32.062;34.834;2024-03-23T04:07:55;13.38;;;3.10;;
75937;SDS011;64615;32.062;34.834;2024-03-23T04:10:20;13.75;;;2.90;;
75937;SDS011;64615;32.062;34.834;2024-03-23T04:12:46;22.85;;;2.60;;
75937;SDS011;64615;32.062;34.834;2024-03-23T04:15:12;12.18;;;2.67;;
75937;SDS011;64615;32.062;34.834;2024-03-23T04:17:38;16.73;;;2.72;;
75937;SDS011;64615;32.062;34.834;2024-03-23T04:20:04;22.08;;;2.78;;
75937;SDS011;64615;32.062;34.834;2024-03-23T04:22:34;16.63;;;2.90;;
75937;SDS011;64615;32.062;34.834;2024-03-23T04:25:00;17.13;;;3.15;;
75937;SDS011;64615;32.062;34.834;2024-03-23T04:27:34;15.07;;;2.92;;
75937;SDS011;64615;32.062;34.834;2024-03-23T04:30:00;20.55;;;3.58;;
75937;SDS011;64615;32.062;34.834;2024-03-23T04:32:27;27.52;;;3.65;;
75937;SDS011;64615;32.062;34.834;2024-03-23T04:34:53;20.42;;;3.17;;
75937;SDS011;64615;32.062;34.834;2024-03-23T04:37:19;16.58;;;3.65;;
75937;SDS011;64615;32.062;34.834;2024-03-23T04:39:48;15.35;;;3.22;;
75937;SDS011;64615;32.062;34.834;2024-03-23T04:42:17;21.48;;;3.47;;
75937;SDS011;64615;32.062;34.834;2024-03-23T04:44:42;23.70;;;3.30;;
75937;SDS011;64615;32.062;34.834;2024-03-23T04:47:09;25.10;;;3.30;;
75937;SDS011;64615;32.062;34.834;2024-03-23T04:49:35;19.45;;;3.85;;
75937;SDS011;64615;32.062;34.834;2024-03-23T04:52:03;17.23;;;3.03;;
75937;SDS011;64615;32.062;34.834;2024-03-23T04:54:29;27.60;;;3.22;;
75937;SDS011;64615;32.062;34.834;2024-03-23T04:56:56;20.65;;;3.00;;
75937;SDS011;64615;32.062;34.834;2024-03-23T04:59:21;22.10;;;3.78;;
75937;SDS011;64615;32.062;34.834;2024-03-23T05:01:47;26.85;;;3.55;;
75937;SDS011;64615;32.062;34.834;2024-03-23T05:04:12;24.60;;;2.90;;
75937;SDS011;64615;32.062;34.834;2024-03-23T05:06:38;17.58;;;3.05;;
75937;SDS011;64615;32.062;34.834;2024-03-23T05:09:04;12.73;;;2.75;;
75937;SDS011;64615;32.062;34.834;2024-03-23T05:11:33;20.48;;;3.20;;
75937;SDS011;64615;32.062;34.834;2024-03-23T05:13:59;16.08;;;3.00;;
75937;SDS011;64615;32.062;34.834;2024-03-23T05:16:25;19.90;;;3.38;;
75937;SDS011;64615;32.062;34.834;2024-03-23T05:18:52;27.35;;;3.58;;
75937;SDS011;64615;32.062;34.834;2024-03-23T05:21:17;16.52;;;3.05;;
75937;SDS011;64615;32.062;34.834;2024-03-23T05:23:43;19.10;;;3.35;;
75937;SDS011;64615;32.062;34.834;2024-03-23T05:26:09;19.38;;;2.92;;
75937;SDS011;64615;32.062;34.834;2024-03-23T05:28:35;17.25;;;3.45;;
75937;SDS011;64615;32.062;34.834;2024-03-23T05:31:00;21.95;;;3.20;;
75937;SDS011;64615;32.062;34.834;2024-03-23T05:33:26;22.60;;;3.30;;
75937;SDS011;64615;32.062;34.834;2024-03-23T05:35:58;21.40;;;3.40;;
75937;SDS011;64615;32.062;34.834;2024-03-23T05:38:25;32.08;;;4.18;;
75937;SDS011;64615;32.062;34.834;2024-03-23T05:40:54;22.38;;;3.50;;
75937;SDS011;64615;32.062;34.834;2024-03-23T05:43:20;17.98;;;2.92;;
75937;SDS011;64615;32.062;34.834;2024-03-23T05:45:47;17.73;;;3.15;;
75937;SDS011;64615;32.062;34.834;2024-03-23T05:48:19;14.73;;;2.95;;
75937;SDS011;64615;32.062;34.834;2024-03-23T05:50:44;15.77;;;3.45;;
75937;SDS011;64615;32.062;34.834;2024-03-23T05:53:10;15.60;;;3.03;;
75937;SDS011;64615;32.062;34.834;2024-03-23T05:55:35;18.88;;;2.85;;
75937;SDS011;64615;32.062;34.834;2024-03-23T05:58:01;22.48;;;3.30;;
75937;SDS011;64615;32.062;34.834;2024-03-23T06:00:27;16.73;;;2.92;;
75937;SDS011;64615;32.062;34.834;2024-03-23T06:02:52;16.10;;;3.58;;
75937;SDS011;64615;32.062;34.834;2024-03-23T06:05:18;36.17;;;3.92;;
75937;SDS011;64615;32.062;34.834;2024-03-23T06:07:43;28.13;;;4.22;;
75937;SDS011;64615;32.062;34.834;2024-03-23T06:10:09;16.98;;;3.53;;
75937;SDS011;64615;32.062;34.834;2024-03-23T06:12:35;23.23;;;3.42;;
75937;SDS011;64615;32.062;34.834;2024-03-23T06:15:00;26.55;;;3.50;;
75937;SDS011;64615;32.062;34.834;2024-03-23T06:17:27;20.42;;;3.75;;
75937;SDS011;64615;32.062;34.834;2024-03-23T06:19:52;21.02;;;3.42;;
75937;SDS011;64615;32.062;34.834;2024-03-23T06:22:18;22.80;;;3.80;;
75937;SDS011;64615;32.062;34.834;2024-03-23T06:24:44;17.08;;;3.30;;
75937;SDS011;64615;32.062;34.834;2024-03-23T06:27:09;19.33;;;3.08;;
75937;SDS011;64615;32.062;34.834;2024-03-23T06:29:35;19.70;;;3.55;;
75937;SDS011;64615;32.062;34.834;2024-03-23T06:32:01;13.90;;;2.80;;
75937;SDS011;64615;32.062;34.834;2024-03-23T06:34:28;25.38;;;3.78;;
75937;SDS011;64615;32.062;34.834;2024-03-23T06:36:54;17.65;;;3.38;;
75937;SDS011;64615;32.062;34.834;2024-03-23T06:39:20;26.10;;;3.65;;
75937;SDS011;64615;32.062;34.834;2024-03-23T06:41:51;22.95;;;3.55;;
75937;SDS011;64615;32.062;34.834;2024-03-23T06:44:18;18.13;;;3.10;;
75937;SDS011;64615;32.062;34.834;2024-03-23T06:46:44;12.15;;;2.80;;
75937;SDS011;64615;32.062;34.834;2024-03-23T06:49:10;17.50;;;2.85;;
75937;SDS011;64615;32.062;34.834;2024-03-23T06:51:36;13.98;;;2.67;;
75937;SDS011;64615;32.062;34.834;2024-03-23T06:54:03;11.38;;;2.78;;
75937;SDS011;64615;32.062;34.834;2024-03-23T06:56:29;9.95;;;3.20;;
75937;SDS011;64615;32.062;34.834;2024-03-23T06:58:55;11.95;;;2.50;;
75937;SDS011;64615;32.062;34.834;2024-03-23T07:01:21;10.85;;;2.97;;
75937;SDS011;64615;32.062;34.834;2024-03-23T07:03:47;10.35;;;2.72;;
75937;SDS011;64615;32.062;34.834;2024-03-23T07:06:13;11.40;;;2.88;;
75937;SDS011;64615;32.062;34.834;2024-03-23T07:08:38;11.60;;;2.83;;
75937;SDS011;64615;32.062;34.834;2024-03-23T07:11:04;9.85;;;2.72;;
75937;SDS011;64615;32.062;34.834;2024-03-23T07:13:30;31.63;;;4.18;;
75937;SDS011;64615;32.062;34.834;2024-03-23T07:15:56;22.63;;;3.53;;
75937;SDS011;64615;32.062;34.834;2024-03-23T07:18:22;17.00;;;2.80;;
75937;SDS011;64615;32.062;34.834;2024-03-23T07:23:21;24.13;;;2.83;;
75937;SDS011;64615;32.062;34.834;2024-03-23T07:26:06;13.63;;;2.97;;
75937;SDS011;64615;32.062;34.834;2024-03-23T07:28:33;23.48;;;3.15;;
75937;SDS011;64615;32.062;34.834;2024-03-23T07:31:06;18.00;;;3.65;;
75937;SDS011;64615;32.062;34.834;2024-03-23T07:33:34;24.17;;;3.03;;
75937;SDS011;64615;32.062;34.834;2024-03-23T07:36:01;14.15;;;2.47;;
75937;SDS011;64615;32.062;34.834;2024-03-23T07:38:30;9.68;;;2.67;;
75937;SDS011;64615;32.062;34.834;2024-03-23T07:41:06;14.90;;;3.40;;
75937;SDS011;64615;32.062;34.834;2024-03-23T07:43:33;13.02;;;2.35;;
75937;SDS011;64615;32.062;34.834;2024-03-23T07:45:59;21.85;;;2.63;;
75937;SDS011;64615;32.062;34.834;2024-03-23T07:48:25;10.88;;;2.10;;
75937;SDS011;64615;32.062;34.834;2024-03-23T07:53:30;13.57;;;2.85;;
75937;SDS011;64615;32.062;34.834;2024-03-23T07:55:57;11.88;;;2.50;;
75937;SDS011;64615;32.062;34.834;2024-03-23T08:01:02;11.13;;;2.80;;
75937;SDS011;64615;32.062;34.834;2024-03-23T08:03:29;25.85;;;3.45;;
75937;SDS011;64615;32.062;34.834;2024-03-23T08:05:55;16.00;;;3.00;;
75937;SDS011;64615;32.062;34.834;2024-03-23T08:08:20;19.83;;;3.38;;
75937;SDS011;64615;32.062;34.834;2024-03-23T08:10:47;19.30;;;3.03;;
75937;SDS011;64615;32.062;34.834;2024-03-23T08:13:16;15.45;;;3.22;;
75937;SDS011;64615;32.062;34.834;2024-03-23T08:15:41;10.60;;;3.42;;
75937;SDS011;64615;32.062;34.834;2024-03-23T08:18:07;12.23;;;2.92;;
75937;SDS011;64615;32.062;34.834;2024-03-23T08:20:33;11.23;;;2.60;;
75937;SDS011;64615;32.062;34.834;2024-03-23T08:22:59;9.80;;;2.30;;
75937;SDS011;64615;32.062;34.834;2024-03-23T08:25:24;9.57;;;2.60;;
75937;SDS011;64615;32.062;34.834;2024-03-23T08:27:50;8.00;;;2.33;;
75937;SDS011;64615;32.062;34.834;2024-03-23T08:30:16;8.63;;;2.65;;
75937;SDS011;64615;32.062;34.834;2024-03-23T08:32:42;9.88;;;2.40;;
75937;SDS011;64615;32.062;34.834;2024-03-23T08:35:07;9.60;;;2.63;;
75937;SDS011;64615;32.062;34.834;2024-03-23T08:37:33;9.00;;;2.70;;
75937;SDS011;64615;32.062;34.834;2024-03-23T08:39:59;10.30;;;2.50;;
75937;SDS011;64615;32.062;34.834;2024-03-23T08:42:24;8.63;;;2.65;;
75937;SDS011;64615;32.062;34.834;2024-03-23T08:44:50;7.82;;;2.50;;
75937;SDS011;64615;32.062;34.834;2024-03-23T08:47:16;11.23;;;2.75;;
75937;SDS011;64615;32.062;34.834;2024-03-23T08:49:41;11.48;;;2.55;;
75937;SDS011;64615;32.062;34.834;2024-03-23T08:52:07;8.02;;;2.22;;
75937;SDS011;64615;32.062;34.834;2024-03-23T08:54:33;8.13;;;2.10;;
75937;SDS011;64615;32.062;34.834;2024-03-23T08:56:59;8.50;;;2.70;;
75937;SDS011;64615;32.062;34.834;2024-03-23T08:59:25;8.23;;;2.72;;
75937;SDS011;64615;32.062;34.834;2024-03-23T09:01:51;7.20;;;2.30;;
75937;SDS011;64615;32.062;34.834;2024-03-23T09:04:16;6.75;;;2.47;;
75937;SDS011;64615;32.062;34.834;2024-03-23T09:06:42;7.32;;;2.55;;
75937;SDS011;64615;32.062;34.834;2024-03-23T09:09:08;7.10;;;2.30;;
75937;SDS011;64615;32.062;34.834;2024-03-23T09:11:34;6.63;;;2.20;;
75937;SDS011;64615;32.062;34.834;2024-03-23T09:14:00;6.95;;;2.00;;
75937;SDS011;64615;32.062;34.834;2024-03-23T09:16:25;10.57;;;2.40;;
75937;SDS011;64615;32.062;34.834;2024-03-23T09:18:51;8.32;;;2.22;;
75937;SDS011;64615;32.062;34.834;2024-03-23T09:21:17;9.25;;;2.25;;
75937;SDS011;64615;32.062;34.834;2024-03-23T09:23:43;9.10;;;2.20;;
75937;SDS011;64615;32.062;34.834;2024-03-23T09:26:09;10.10;;;2.30;;
75937;SDS011;64615;32.062;34.834;2024-03-23T09:28:35;8.23;;;2.00;;
75937;SDS011;64615;32.062;34.834;2024-03-23T09:31:04;5.97;;;2.22;;
75937;SDS011;64615;32.062;34.834;2024-03-23T09:33:36;5.13;;;2.00;;
75937;SDS011;64615;32.062;34.834;2024-03-23T09:36:05;8.00;;;2.35;;
75937;SDS011;64615;32.062;34.834;2024-03-23T09:38:31;8.07;;;2.00;;
75937;SDS011;64615;32.062;34.834;2024-03-23T09:40:57;9.20;;;2.40;;
75937;SDS011;64615;32.062;34.834;2024-03-23T09:43:24;8.48;;;2.38;;
75937;SDS011;64615;32.062;34.834;2024-03-23T09:45:50;6.22;;;2.13;;
75937;SDS011;64615;32.062;34.834;2024-03-23T09:48:16;6.72;;;2.10;;
75937;SDS011;64615;32.062;34.834;2024-03-23T09:50:43;6.40;;;2.10;;
75937;SDS011;64615;32.062;34.834;2024-03-23T09:53:10;6.65;;;2.45;;
75937;SDS011;64615;32.062;34.834;2024-03-23T09:55:37;8.45;;;2.55;;
75937;SDS011;64615;32.062;34.834;2024-03-23T09:58:04;7.50;;;2.50;;
75937;SDS011;64615;32.062;34.834;2024-03-23T10:00:34;7.90;;;2.38;;
75937;SDS011;64615;32.062;34.834;2024-03-23T10:03:00;7.43;;;2.10;;
75937;SDS011;64615;32.062;34.834;2024-03-23T10:05:31;9.75;;;2.40;;
75937;SDS011;64615;32.062;34.834;2024-03-23T10:07:59;7.13;;;2.20;;
75937;SDS011;64615;32.062;34.834;2024-03-23T10:12:52;5.75;;;2.33;;
75937;SDS011;64615;32.062;34.834;2024-03-23T10:15:19;5.63;;;2.30;;
75937;SDS011;64615;32.062;34.834;2024-03-23T10:17:46;7.95;;;2.28;;
75937;SDS011;64615;32.062;34.834;2024-03-23T10:20:12;8.60;;;2.25;;
75937;SDS011;64615;32.062;34.834;2024-03-23T10:22:38;7.97;;;2.25;;
75937;SDS011;64615;32.062;34.834;2024-03-23T10:25:10;6.88;;;2.13;;
75937;SDS011;64615;32.062;34.834;2024-03-23T10:27:36;4.65;;;2.00;;
75937;SDS011;64615;32.062;34.834;2024-03-23T10:30:12;8.35;;;2.40;;
75937;SDS011;64615;32.062;34.834;2024-03-23T10:32:40;7.15;;;2.17;;
75937;SDS011;64615;32.062;34.834;2024-03-23T10:37:44;6.63;;;2.20;;
75937;SDS011;64615;32.062;34.834;2024-03-23T10:40:14;5.68;;;2.15;;
75937;SDS011;64615;32.062;34.834;2024-03-23T10:42:40;5.55;;;1.85;;
75937;SDS011;64615;32.062;34.834;2024-03-23T10:45:06;4.80;;;1.90;;
75937;SDS011;64615;32.062;34.834;2024-03-23T10:47:36;8.35;;;2.30;;
75937;SDS011;64615;32.062;34.834;2024-03-23T10:50:03;6.88;;;2.03;;
75937;SDS011;64615;32.062;34.834;2024-03-23T10:52:30;12.60;;;2.92;;
75937;SDS011;64615;32.062;34.834;2024-03-23T10:54:59;12.35;;;3.13;;
75937;SDS011;64615;32.062;34.834;2024-03-23T10:57:50;30.33;;;13.85;;
75937;SDS011;64615;32.062;34.834;2024-03-23T11:00:19;22.40;;;7.47;;
75937;SDS011;64615;32.062;34.834;2024-03-23T11:02:47;22.02;;;4.30;;
75937;SDS011;64615;32.062;34.834;2024-03-23T11:07:51;17.08;;;3.97;;
75937;SDS011;64615;32.062;34.834;2024-03-23T11:10:25;17.20;;;4.28;;
75937;SDS011;64615;32.062;34.834;2024-03-23T11:12:55;11.40;;;3.35;;
75937;SDS011;64615;32.062;34.834;2024-03-23T11:15:22;17.92;;;3.72;;
75937;SDS011;64615;32.062;34.834;2024-03-23T11:18:03;25.92;;;4.45;;
75937;SDS011;64615;32.062;34.834;2024-03-23T11:20:31;16.67;;;3.80;;
75937;SDS011;64615;32.062;34.834;2024-03-23T11:22:57;12.73;;;3.45;;
75937;SDS011;64615;32.062;34.834;2024-03-23T11:25:23;12.80;;;3.30;;
75937;SDS011;64615;32.062;34.834;2024-03-23T11:27:50;14.13;;;3.00;;
75937;SDS011;64615;32.062;34.834;2024-03-23T11:32:52;11.95;;;3.10;;
75937;SDS011;64615;32.062;34.834;2024-03-23T11:35:37;11.60;;;2.83;;
75937;SDS011;64615;32.062;34.834;2024-03-23T11:40:40;10.27;;;3.28;;
75937;SDS011;64615;32.062;34.834;2024-03-23T11:43:08;12.00;;;2.97;;
75937;SDS011;64615;32.062;34.834;2024-03-23T11:50:44;9.23;;;2.47;;
75937;SDS011;64615;32.062;34.834;2024-03-23T11:55:41;9.18;;;2.40;;
75937;SDS011;64615;32.062;34.834;2024-03-23T11:58:18;10.27;;;2.83;;
75937;SDS011;64615;32.062;34.834;2024-03-23T12:01:02;9.23;;;2.53;;
75937;SDS011;64615;32.062;34.834;2024-03-23T12:03:29;11.77;;;2.70;;
75937;SDS011;64615;32.062;34.834;2024-03-23T12:06:00;7.22;;;2.83;;
75937;SDS011;64615;32.062;34.834;2024-03-23T12:08:31;10.75;;;2.75;;
75937;SDS011;64615;32.062;34.834;2024-03-23T12:13:53;7.15;;;2.20;;
75937;SDS011;64615;32.062;34.834;2024-03-23T12:16:25;5.82;;;2.50;;
75937;SDS011;64615;32.062;34.834;2024-03-23T12:18:52;6.07;;;2.53;;
75937;SDS011;64615;32.062;34.834;2024-03-23T12:21:18;8.40;;;2.53;;
75937;SDS011;64615;32.062;34.834;2024-03-23T12:23:44;6.82;;;2.45;;
75937;SDS011;64615;32.062;34.834;2024-03-23T12:26:11;6.28;;;2.85;;
75937;SDS011;64615;32.062;34.834;2024-03-23T12:28:37;9.05;;;2.30;;
75937;SDS011;64615;32.062;34.834;2024-03-23T12:31:04;8.38;;;2.45;;
75937;SDS011;64615;32.062;34.834;2024-03-23T12:33:30;7.05;;;2.63;;
75937;SDS011;64615;32.062;34.834;2024-03-23T12:35:56;6.60;;;2.58;;
75937;SDS011;64615;32.062;34.834;2024-03-23T12:38:22;6.90;;;2.53;;
75937;SDS011;64615;32.062;34.834;2024-03-23T12:40:51;5.65;;;2.50;;
75937;SDS011;64615;32.062;34.834;2024-03-23T12:43:17;8.30;;;2.45;;
75937;SDS011;64615;32.062;34.834;2024-03-23T12:45:46;5.65;;;2.40;;
75937;SDS011;64615;32.062;34.834;2024-03-23T12:48:15;7.18;;;2.60;;
75937;SDS011;64615;32.062;34.834;2024-03-23T12:50:43;3.97;;;1.80;;
75937;SDS011;64615;32.062;34.834;2024-03-23T12:53:09;12.25;;;2.15;;
75937;SDS011;64615;32.062;34.834;2024-03-23T12:55:35;4.53;;;1.98;;
75937;SDS011;64615;32.062;34.834;2024-03-23T12:58:01;5.22;;;2.20;;
75937;SDS011;64615;32.062;34.834;2024-03-23T13:00:26;6.70;;;2.33;;
75937;SDS011;64615;32.062;34.834;2024-03-23T13:02:52;5.43;;;1.83;;
75937;SDS011;64615;32.062;34.834;2024-03-23T13:05:18;5.75;;;2.10;;
75937;SDS011;64615;32.062;34.834;2024-03-23T13:07:43;5.93;;;2.38;;
75937;SDS011;64615;32.062;34.834;2024-03-23T13:10:09;5.93;;;2.53;;
75937;SDS011;64615;32.062;34.834;2024-03-23T13:12:35;7.82;;;2.20;;
75937;SDS011;64615;32.062;34.834;2024-03-23T13:15:01;14.90;;;2.53;;
75937;SDS011;64615;32.062;34.834;2024-03-23T13:17:27;6.78;;;2.30;;
75937;SDS011;64615;32.062;34.834;2024-03-23T13:19:55;5.53;;;2.00;;
75937;SDS011;64615;32.062;34.834;2024-03-23T13:24:47;4.75;;;1.90;;
75937;SDS011;64615;32.062;34.834;2024-03-23T13:27:12;5.32;;;1.92;;
75937;SDS011;64615;32.062;34.834;2024-03-23T13:29:38;6.13;;;1.90;;
75937;SDS011;64615;32.062;34.834;2024-03-23T13:32:04;4.60;;;1.70;;
75937;SDS011;64615;32.062;34.834;2024-03-23T13:34:30;7.15;;;2.10;;
75937;SDS011;64615;32.062;34.834;2024-03-23T13:36:55;5.20;;;2.10;;
75937;SDS011;64615;32.062;34.834;2024-03-23T13:39:24;7.85;;;2.40;;
75937;SDS011;64615;32.062;34.834;2024-03-23T13:41:52;4.18;;;1.75;;
75937;SDS011;64615;32.062;34.834;2024-03-23T13:44:18;5.53;;;2.10;;
75937;SDS011;64615;32.062;34.834;2024-03-23T13:46:43;5.55;;;2.03;;
75937;SDS011;64615;32.062;34.834;2024-03-23T13:49:28;5.20;;;1.92;;
75937;SDS011;64615;32.062;34.834;2024-03-23T13:51:55;6.65;;;1.80;;
75937;SDS011;64615;32.062;34.834;2024-03-23T13:54:28;4.75;;;1.75;;
75937;SDS011;64615;32.062;34.834;2024-03-23T13:56:54;4.45;;;1.80;;
75937;SDS011;64615;32.062;34.834;2024-03-23T13:59:21;6.75;;;2.35;;
75937;SDS011;64615;32.062;34.834;2024-03-23T14:01:48;4.55;;;1.92;;
75937;SDS011;64615;32.062;34.834;2024-03-23T14:04:14;5.65;;;1.95;;
75937;SDS011;64615;32.062;34.834;2024-03-23T14:06:44;7.40;;;2.20;;
75937;SDS011;64615;32.062;34.834;2024-03-23T14:09:13;5.07;;;1.83;;
75937;SDS011;64615;32.062;34.834;2024-03-23T14:11:39;5.72;;;1.70;;
75937;SDS011;64615;32.062;34.834;2024-03-23T14:14:09;8.68;;;1.83;;
75937;SDS011;64615;32.062;34.834;2024-03-23T14:16:35;5.82;;;1.75;;
75937;SDS011;64615;32.062;34.834;2024-03-23T14:19:00;6.25;;;1.90;;
75937;SDS011;64615;32.062;34.834;2024-03-23T14:21:26;10.05;;;1.90;;
75937;SDS011;64615;32.062;34.834;2024-03-23T14:23:52;9.35;;;1.75;;
75937;SDS011;64615;32.062;34.834;2024-03-23T14:26:19;9.25;;;2.00;;
75937;SDS011;64615;32.062;34.834;2024-03-23T14:28:45;8.35;;;2.42;;
75937;SDS011;64615;32.062;34.834;2024-03-23T14:31:11;15.27;;;2.63;;
75937;SDS011;64615;32.062;34.834;2024-03-23T14:33:37;11.90;;;2.35;;
75937;SDS011;64615;32.062;34.834;2024-03-23T14:36:03;8.18;;;2.13;;
75937;SDS011;64615;32.062;34.834;2024-03-23T14:38:29;10.15;;;2.58;;
75937;SDS011;64615;32.062;34.834;2024-03-23T14:40:58;11.57;;;2.42;;
75937;SDS011;64615;32.062;34.834;2024-03-23T14:43:25;10.48;;;2.20;;
75937;SDS011;64615;32.062;34.834;2024-03-23T14:46:06;11.75;;;2.28;;
75937;SDS011;64615;32.062;34.834;2024-03-23T14:48:35;12.38;;;2.75;;
75937;SDS011;64615;32.062;34.834;2024-03-23T14:51:01;36.38;;;3.58;;
75937;SDS011;64615;32.062;34.834;2024-03-23T14:53:34;11.32;;;2.25;;
75937;SDS011;64615;32.062;34.834;2024-03-23T14:56:01;12.38;;;1.88;;
75937;SDS011;64615;32.062;34.834;2024-03-23T14:58:28;12.20;;;2.55;;
75937;SDS011;64615;32.062;34.834;2024-03-23T15:01:01;7.80;;;1.90;;
75937;SDS011;64615;32.062;34.834;2024-03-23T15:03:30;10.18;;;1.80;;
75937;SDS011;64615;32.062;34.834;2024-03-23T15:05:56;10.98;;;1.77;;
75937;SDS011;64615;32.062;34.834;2024-03-23T15:08:23;9.60;;;2.40;;
75937;SDS011;64615;32.062;34.834;2024-03-23T15:10:49;12.93;;;2.10;;
75937;SDS011;64615;32.062;34.834;2024-03-23T15:13:15;9.98;;;2.47;;
75937;SDS011;64615;32.062;34.834;2024-03-23T15:15:41;14.93;;;2.47;;
75937;SDS011;64615;32.062;34.834;2024-03-23T15:18:11;9.65;;;1.90;;
75937;SDS011;64615;32.062;34.834;2024-03-23T15:20:37;10.43;;;1.92;;
75937;SDS011;64615;32.062;34.834;2024-03-23T15:23:04;14.50;;;2.20;;
75937;SDS011;64615;32.062;34.834;2024-03-23T15:25:29;12.70;;;1.85;;
75937;SDS011;64615;32.062;34.834;2024-03-23T15:27:56;14.02;;;2.22;;
75937;SDS011;64615;32.062;34.834;2024-03-23T15:30:23;12.80;;;2.15;;
75937;SDS011;64615;32.062;34.834;2024-03-23T15:32:48;12.43;;;2.30;;
75937;SDS011;64615;32.062;34.834;2024-03-23T15:35:14;10.88;;;1.90;;
75937;SDS011;64615;32.062;34.834;2024-03-23T15:37:40;14.23;;;2.22;;
75937;SDS011;64615;32.062;34.834;2024-03-23T15:40:08;12.82;;;2.03;;
75937;SDS011;64615;32.062;34.834;2024-03-23T15:42:35;20.65;;;2.63;;
75937;SDS011;64615;32.062;34.834;2024-03-23T15:45:00;13.85;;;2.67;;
75937;SDS011;64615;32.062;34.834;2024-03-23T15:47:28;16.77;;;2.72;;
75937;SDS011;64615;32.062;34.834;2024-03-23T15:49:54;32.30;;;3.25;;
75937;SDS011;64615;32.062;34.834;2024-03-23T15:52:20;26.58;;;3.55;;